sensor_id;sensor_type;location;lat;lon;timestamp;P1;durP1;ratioP1;P2;durP2;ratioP2
46633;SDS011;32362;49.986;8.026;2023-02-22T00:22:40;23.30;;;11.73;;
46633;SDS011;32362;49.986;8.026;2023-02-22T00:49:30;20.52;;;10.23;;
46633;SDS011;32362;49.986;8.026;2023-02-22T01:16:11;20.80;;;9.93;;
46633;SDS011;32362;49.986;8.026;2023-02-22T01:42:53;23.58;;;11.05;;
46633;SDS011;32362;49.986;8.026;2023-02-22T03:03:55;25.30;;;11.55;;
46633;SDS011;32362;49.986;8.026;2023-02-22T03:30:49;23.58;;;11.13;;
46633;SDS011;32362;49.986;8.026;2023-02-22T03:57:39;18.98;;;8.85;;
46633;SDS011;32362;49.986;8.026;2023-02-22T04:24:22;11.82;;;7.07;;
46633;SDS011;32362;49.986;8.026;2023-02-22T04:51:17;11.73;;;6.80;;
46633;SDS011;32362;49.986;8.026;2023-02-22T05:18:18;16.35;;;9.25;;
46633;SDS011;32362;49.986;8.026;2023-02-22T05:44:58;20.50;;;9.85;;
46633;SDS011;32362;49.986;8.026;2023-02-22T06:11:39;20.33;;;10.40;;
46633;SDS011;32362;49.986;8.026;2023-02-22T06:38:21;26.23;;;12.03;;
46633;SDS011;32362;49.986;8.026;2023-02-22T07:05:05;22.33;;;10.43;;
46633;SDS011;32362;49.986;8.026;2023-02-22T07:31:46;22.95;;;9.93;;
46633;SDS011;32362;49.986;8.026;2023-02-22T07:58:28;24.67;;;11.73;;
46633;SDS011;32362;49.986;8.026;2023-02-22T08:25:10;21.85;;;9.48;;
46633;SDS011;32362;49.986;8.026;2023-02-22T08:52:07;20.67;;;9.65;;
46633;SDS011;32362;49.986;8.026;2023-02-22T09:18:48;28.92;;;11.35;;
46633;SDS011;32362;49.986;8.026;2023-02-22T10:39:46;43.45;;;16.83;;
46633;SDS011;32362;49.986;8.026;2023-02-22T11:06:29;43.70;;;17.67;;
46633;SDS011;32362;49.986;8.026;2023-02-22T12:27:14;33.85;;;19.08;;
46633;SDS011;32362;49.986;8.026;2023-02-22T12:54:15;27.48;;;17.85;;
46633;SDS011;32362;49.986;8.026;2023-02-22T14:41:51;27.53;;;17.70;;
46633;SDS011;32362;49.986;8.026;2023-02-22T15:08:45;31.98;;;18.58;;
46633;SDS011;32362;49.986;8.026;2023-02-22T15:35:31;34.47;;;19.30;;
46633;SDS011;32362;49.986;8.026;2023-02-22T16:02:19;31.00;;;18.65;;
46633;SDS011;32362;49.986;8.026;2023-02-22T16:29:24;40.63;;;19.90;;
46633;SDS011;32362;49.986;8.026;2023-02-22T16:56:07;40.38;;;21.50;;
46633;SDS011;32362;49.986;8.026;2023-02-22T17:22:49;41.53;;;21.02;;
46633;SDS011;32362;49.986;8.026;2023-02-22T17:49:30;42.38;;;20.33;;
46633;SDS011;32362;49.986;8.026;2023-02-22T18:16:13;43.80;;;21.20;;
46633;SDS011;32362;49.986;8.026;2023-02-22T18:42:55;44.05;;;21.52;;
46633;SDS011;32362;49.986;8.026;2023-02-22T19:09:35;49.25;;;22.40;;
46633;SDS011;32362;49.986;8.026;2023-02-22T19:36:20;46.28;;;22.15;;
46633;SDS011;32362;49.986;8.026;2023-02-22T20:03:04;46.17;;;22.38;;
46633;SDS011;32362;49.986;8.026;2023-02-22T20:29:45;51.47;;;23.80;;
46633;SDS011;32362;49.986;8.026;2023-02-22T20:56:26;47.87;;;22.97;;
46633;SDS011;32362;49.986;8.026;2023-02-22T21:23:11;47.67;;;24.48;;
46633;SDS011;32362;49.986;8.026;2023-02-22T21:50:07;50.83;;;26.20;;
46633;SDS011;32362;49.986;8.026;2023-02-22T22:16:51;39.30;;;22.00;;
46633;SDS011;32362;49.986;8.026;2023-02-22T22:43:34;44.65;;;22.38;;
46633;SDS011;32362;49.986;8.026;2023-02-22T23:10:16;41.35;;;22.83;;
46633;SDS011;32362;49.986;8.026;2023-02-22T23:36:56;44.20;;;22.13;;
